createdAt,value
2023-01-19T00:00:55.761Z,18.45
2023-01-19T00:03:22.934Z,18.48
2023-01-19T00:05:49.993Z,18.51
2023-01-19T00:08:17.818Z,18.47
2023-01-19T00:10:48.349Z,18.37
2023-01-19T00:13:16.276Z,18.31
2023-01-19T00:15:44.247Z,18.25
2023-01-19T00:18:11.487Z,18.21
2023-01-19T00:20:39.813Z,18.19
2023-01-19T00:23:08.414Z,18.23
2023-01-19T00:25:36.073Z,18.29
2023-01-19T00:28:03.276Z,18.33
2023-01-19T00:30:30.540Z,18.30
2023-01-19T00:32:57.798Z,18.26
2023-01-19T00:35:25.364Z,18.17
2023-01-19T00:37:52.438Z,18.15
2023-01-19T00:40:19.544Z,18.12
2023-01-19T00:42:48.623Z,18.12
2023-01-19T00:45:23.429Z,18.09
2023-01-19T00:47:55.079Z,18.08
2023-01-19T00:50:22.374Z,18.05
2023-01-19T00:52:49.476Z,18.05
2023-01-19T00:55:17.117Z,18.05
2023-01-19T00:57:44.208Z,18.07
2023-01-19T01:00:14.462Z,18.06
2023-01-19T01:02:43.116Z,18.03
2023-01-19T01:05:12.494Z,18.03
2023-01-19T01:07:49.000Z,18.07
2023-01-19T01:10:26.273Z,18.09
2023-01-19T01:12:59.225Z,18.11
2023-01-19T01:15:29.721Z,18.10
2023-01-19T01:17:56.710Z,18.09
2023-01-19T01:20:28.375Z,18.07
2023-01-19T01:22:56.499Z,18.07
2023-01-19T01:25:25.191Z,18.07
2023-01-19T01:27:52.395Z,18.07
2023-01-19T01:30:20.031Z,18.09
2023-01-19T01:32:47.193Z,18.10
2023-01-19T01:35:14.988Z,18.13
2023-01-19T01:37:45.515Z,18.17
2023-01-19T01:40:14.526Z,18.17
2023-01-19T01:42:42.748Z,18.11
2023-01-19T01:45:28.558Z,18.15
2023-01-19T01:48:01.904Z,18.15
2023-01-19T01:50:31.804Z,18.15
2023-01-19T01:53:15.015Z,18.17
2023-01-19T01:55:47.045Z,18.20
2023-01-19T01:58:16.476Z,18.19
2023-01-19T02:01:02.338Z,18.15
2023-01-19T02:03:29.812Z,18.17
2023-01-19T02:06:01.966Z,18.17
2023-01-19T02:08:53.238Z,18.16
2023-01-19T02:11:39.327Z,18.15
2023-01-19T02:14:07.042Z,18.13
2023-01-19T02:16:36.594Z,18.11
2023-01-19T02:19:05.690Z,18.08
2023-01-19T02:21:43.293Z,18.14
2023-01-19T02:24:11.188Z,18.14
2023-01-19T02:26:47.496Z,18.12
2023-01-19T02:29:21.018Z,18.12
2023-01-19T02:31:48.116Z,18.13
2023-01-19T02:34:18.252Z,18.15
2023-01-19T02:36:52.986Z,18.14
2023-01-19T02:39:25.521Z,18.11
2023-01-19T02:41:57.338Z,18.07
2023-01-19T02:44:25.831Z,18.03
2023-01-19T02:46:55.173Z,17.96
2023-01-19T02:49:22.398Z,17.93
2023-01-19T02:51:49.910Z,17.90
2023-01-19T02:54:25.531Z,17.87
2023-01-19T02:57:11.463Z,17.88
2023-01-19T03:00:13.490Z,17.95
2023-01-19T03:02:55.425Z,18.01
2023-01-19T03:05:51.043Z,17.98
2023-01-19T03:08:29.907Z,17.95
2023-01-19T03:11:06.893Z,17.98
2023-01-19T03:13:44.802Z,18.02
2023-01-19T03:16:15.286Z,18.06
2023-01-19T03:18:46.574Z,18.06
2023-01-19T03:21:16.516Z,18.08
2023-01-19T03:23:46.896Z,18.06
2023-01-19T03:26:19.385Z,18.01
2023-01-19T03:28:48.772Z,17.95
2023-01-19T03:31:21.485Z,17.89
2023-01-19T03:33:53.911Z,17.90
2023-01-19T03:36:29.957Z,17.92
2023-01-19T03:38:58.765Z,17.91
2023-01-19T03:41:27.994Z,17.92
2023-01-19T03:43:56.013Z,17.93
2023-01-19T03:46:25.056Z,17.94
2023-01-19T03:48:52.440Z,17.94
2023-01-19T03:51:19.836Z,17.99
2023-01-19T03:53:47.461Z,18.00
2023-01-19T03:56:19.730Z,18.02
2023-01-19T03:58:47.122Z,18.03
2023-01-19T04:01:15.583Z,18.03
2023-01-19T04:03:47.580Z,18.06
2023-01-19T04:06:14.978Z,18.10
2023-01-19T04:08:42.087Z,18.14
2023-01-19T04:11:10.015Z,18.15
2023-01-19T04:13:37.391Z,18.13
2023-01-19T04:16:05.975Z,18.12
2023-01-19T04:18:34.873Z,18.14
2023-01-19T04:21:07.025Z,18.10
2023-01-19T04:23:34.853Z,18.05
2023-01-19T04:26:06.815Z,18.04
2023-01-19T04:28:35.983Z,18.09
2023-01-19T04:31:03.661Z,18.13
2023-01-19T04:33:31.005Z,18.17
2023-01-19T04:35:58.516Z,18.19
2023-01-19T04:38:26.556Z,18.17
2023-01-19T04:40:54.558Z,18.11
2023-01-19T04:43:22.912Z,18.03
2023-01-19T04:45:50.128Z,17.97
2023-01-19T04:48:18.730Z,17.93
2023-01-19T04:50:46.565Z,17.92
2023-01-19T04:53:14.204Z,17.97
2023-01-19T04:55:41.652Z,17.96
2023-01-19T04:58:08.866Z,17.96
2023-01-19T05:00:36.670Z,18.00
2023-01-19T05:03:05.385Z,18.02
2023-01-19T05:05:33.504Z,18.02
2023-01-19T05:08:00.901Z,17.97
2023-01-19T05:10:28.040Z,18.00
2023-01-19T05:12:55.688Z,17.91
2023-01-19T05:15:22.982Z,17.82
2023-01-19T05:17:50.085Z,17.75
2023-01-19T05:20:17.709Z,17.76
2023-01-19T05:22:53.918Z,17.75
2023-01-19T05:25:21.088Z,17.69
2023-01-19T05:27:48.447Z,17.69
2023-01-19T05:30:15.845Z,17.69
2023-01-19T05:32:43.170Z,17.72
2023-01-19T05:35:10.690Z,17.77
2023-01-19T05:37:37.804Z,17.85
2023-01-19T05:40:05.696Z,17.86
2023-01-19T05:42:33.034Z,17.88
2023-01-19T05:45:00.529Z,17.90
2023-01-19T05:47:30.025Z,17.95
2023-01-19T05:49:57.533Z,17.93
2023-01-19T05:52:25.266Z,17.89
2023-01-19T05:54:52.650Z,17.76
2023-01-19T05:57:19.931Z,17.70
2023-01-19T05:59:47.011Z,17.71
2023-01-19T06:02:14.152Z,17.70
2023-01-19T06:04:41.425Z,17.63
2023-01-19T06:07:08.495Z,17.51
2023-01-19T06:09:35.489Z,17.41
2023-01-19T06:12:02.547Z,17.36
2023-01-19T06:14:29.662Z,17.34
2023-01-19T06:16:56.683Z,17.36
2023-01-19T06:19:23.754Z,17.38
2023-01-19T06:21:52.632Z,17.45
2023-01-19T06:24:20.245Z,17.48
2023-01-19T06:26:47.575Z,17.49
2023-01-19T06:29:14.924Z,17.53
2023-01-19T06:31:42.218Z,17.50
2023-01-19T06:34:09.929Z,17.50
2023-01-19T06:36:37.198Z,17.51
2023-01-19T06:39:06.213Z,17.50
2023-01-19T06:41:34.350Z,17.49
2023-01-19T06:44:01.999Z,17.51
2023-01-19T06:46:29.887Z,17.55
2023-01-19T06:48:57.263Z,17.55
2023-01-19T06:51:24.533Z,17.52
2023-01-19T06:53:51.568Z,17.47
2023-01-19T06:56:18.763Z,17.42
2023-01-19T06:58:48.176Z,17.43
2023-01-19T07:01:15.396Z,17.47
2023-01-19T07:03:43.009Z,17.52
2023-01-19T07:06:12.968Z,17.59
2023-01-19T07:08:40.388Z,17.65
2023-01-19T07:11:27.147Z,17.59
2023-01-19T07:13:56.880Z,17.58
2023-01-19T07:16:24.239Z,17.59
2023-01-19T07:18:51.736Z,17.60
2023-01-19T07:21:19.804Z,17.64
2023-01-19T07:23:50.994Z,17.63
2023-01-19T07:26:22.095Z,17.67
2023-01-19T07:28:49.801Z,17.70
2023-01-19T07:31:17.161Z,17.76
2023-01-19T07:33:44.511Z,17.82
2023-01-19T07:36:12.001Z,17.86
2023-01-19T07:38:39.126Z,17.88
2023-01-19T07:41:09.543Z,17.94
2023-01-19T07:43:36.584Z,17.95
2023-01-19T07:46:06.119Z,17.79
2023-01-19T07:48:33.390Z,17.75
2023-01-19T07:51:02.000Z,17.77
2023-01-19T07:53:38.844Z,17.74
2023-01-19T07:56:07.989Z,17.74
2023-01-19T07:58:35.069Z,17.74
2023-01-19T08:01:07.387Z,17.76
2023-01-19T08:03:34.851Z,17.71
2023-01-19T08:06:02.828Z,17.73
2023-01-19T08:08:30.437Z,17.76
2023-01-19T08:10:57.967Z,17.78
2023-01-19T08:13:25.765Z,17.80
2023-01-19T08:15:54.397Z,17.80
2023-01-19T08:18:21.937Z,17.78
2023-01-19T08:20:49.135Z,17.82
2023-01-19T08:23:18.368Z,17.87
2023-01-19T08:25:46.363Z,17.93
2023-01-19T08:28:15.721Z,18.01
2023-01-19T08:30:46.379Z,17.97
2023-01-19T08:33:14.015Z,17.93
2023-01-19T08:35:42.909Z,17.94
2023-01-19T08:38:10.944Z,17.98
2023-01-19T08:40:40.209Z,18.03
2023-01-19T08:43:10.064Z,18.05
2023-01-19T08:45:41.717Z,18.02
2023-01-19T08:48:10.161Z,17.99
2023-01-19T08:50:37.236Z,17.88
2023-01-19T08:53:07.563Z,17.85
2023-01-19T08:55:36.405Z,17.92
2023-01-19T08:58:05.305Z,17.93
2023-01-19T09:00:40.107Z,17.94
2023-01-19T09:03:09.075Z,17.92
2023-01-19T09:05:39.106Z,17.92
2023-01-19T09:08:11.669Z,17.90
2023-01-19T09:10:39.890Z,17.92
2023-01-19T09:13:11.145Z,18.01
2023-01-19T09:15:39.511Z,18.13
2023-01-19T09:18:10.454Z,18.23
2023-01-19T09:20:39.337Z,18.27
2023-01-19T09:23:06.657Z,18.36
2023-01-19T09:25:33.787Z,18.47
2023-01-19T09:28:01.136Z,18.54
2023-01-19T09:30:28.621Z,18.60
2023-01-19T09:32:55.651Z,18.65
2023-01-19T09:35:22.751Z,18.70
2023-01-19T09:37:49.880Z,18.75
2023-01-19T09:40:19.116Z,18.82
2023-01-19T09:42:52.758Z,18.88
2023-01-19T09:45:39.043Z,18.93
2023-01-19T09:48:21.161Z,18.94
2023-01-19T09:50:49.794Z,18.94
2023-01-19T09:53:26.692Z,19.00
2023-01-19T09:55:53.759Z,19.05
2023-01-19T09:58:21.297Z,19.09
2023-01-19T10:00:57.460Z,19.15
2023-01-19T10:03:24.535Z,19.24
2023-01-19T10:05:57.628Z,19.32
2023-01-19T10:08:43.298Z,19.34
2023-01-19T10:11:51.698Z,19.33
2023-01-19T10:14:34.649Z,19.36
2023-01-19T10:17:19.328Z,19.39
2023-01-19T10:19:51.676Z,19.38
2023-01-19T10:22:25.542Z,19.39
2023-01-19T10:24:56.714Z,19.39
2023-01-19T10:27:32.054Z,19.41
2023-01-19T10:30:00.858Z,19.41
2023-01-19T10:32:34.604Z,19.40
2023-01-19T10:35:12.763Z,19.40
2023-01-19T10:37:45.061Z,19.37
2023-01-19T10:40:12.120Z,19.36
2023-01-19T10:42:41.259Z,19.36
2023-01-19T10:45:19.757Z,19.45
2023-01-19T10:47:48.263Z,19.49
2023-01-19T10:50:37.496Z,19.47
2023-01-19T10:53:06.388Z,19.41
2023-01-19T10:55:38.457Z,19.35
2023-01-19T10:58:07.412Z,19.39
2023-01-19T11:00:44.032Z,19.45
2023-01-19T11:03:28.670Z,19.49
2023-01-19T11:06:15.927Z,19.52
2023-01-19T11:08:44.635Z,19.56
2023-01-19T11:11:15.021Z,19.58
2023-01-19T11:13:44.139Z,19.56
2023-01-19T11:16:25.749Z,19.47
2023-01-19T11:18:54.877Z,19.35
2023-01-19T11:21:26.075Z,19.32
2023-01-19T11:24:02.867Z,19.36
2023-01-19T11:26:49.919Z,19.40
2023-01-19T11:29:23.533Z,19.36
2023-01-19T11:31:51.933Z,19.43
2023-01-19T11:34:39.146Z,19.58
2023-01-19T11:37:27.450Z,19.64
2023-01-19T11:39:58.009Z,19.63
2023-01-19T11:42:26.925Z,19.70
2023-01-19T11:45:16.304Z,19.83
2023-01-19T11:47:52.141Z,19.94
2023-01-19T11:50:41.236Z,20.03
2023-01-19T11:53:17.342Z,20.15
2023-01-19T11:55:48.953Z,20.25
2023-01-19T11:58:20.069Z,20.36
2023-01-19T12:00:53.616Z,20.40
2023-01-19T12:03:32.012Z,20.35
2023-01-19T12:06:04.562Z,20.28
2023-01-19T12:08:37.120Z,20.26
2023-01-19T12:11:06.290Z,20.30
2023-01-19T12:13:34.694Z,20.20
2023-01-19T12:16:08.007Z,20.21
2023-01-19T12:18:44.070Z,20.26
2023-01-19T12:21:11.209Z,20.30
2023-01-19T12:23:59.868Z,20.34
2023-01-19T12:26:33.588Z,20.31
2023-01-19T12:29:14.149Z,20.21
2023-01-19T12:31:43.389Z,19.96
2023-01-19T12:34:26.132Z,19.66
2023-01-19T12:36:56.071Z,19.50
2023-01-19T12:39:25.473Z,19.45
2023-01-19T12:42:15.573Z,19.45
2023-01-19T12:44:43.920Z,19.51
2023-01-19T12:47:10.981Z,19.58
2023-01-19T12:49:47.221Z,19.61
2023-01-19T12:52:21.830Z,19.69
2023-01-19T12:54:57.992Z,19.64
2023-01-19T12:57:33.899Z,19.67
2023-01-19T13:00:05.990Z,19.70
2023-01-19T13:02:47.920Z,19.81
2023-01-19T13:05:19.815Z,19.90
2023-01-19T13:08:07.185Z,19.95
2023-01-19T13:11:11.162Z,20.08
2023-01-19T13:13:38.228Z,20.25
2023-01-19T13:16:28.086Z,20.40
2023-01-19T13:18:56.504Z,20.34
2023-01-19T13:21:26.509Z,20.30
2023-01-19T13:23:56.973Z,20.35
2023-01-19T13:26:27.624Z,20.41
2023-01-19T13:28:58.270Z,20.38
2023-01-19T13:31:26.175Z,20.22
2023-01-19T13:33:55.885Z,20.17
2023-01-19T13:36:33.764Z,20.21
2023-01-19T13:39:06.292Z,20.26
2023-01-19T13:41:37.878Z,20.27
2023-01-19T13:44:28.123Z,20.33
2023-01-19T13:46:56.863Z,20.39
2023-01-19T13:49:30.805Z,20.47
2023-01-19T13:52:27.020Z,20.49
2023-01-19T13:55:01.777Z,20.33
2023-01-19T13:57:41.208Z,20.28
2023-01-19T14:00:16.757Z,20.35
2023-01-19T14:02:59.525Z,20.44
2023-01-19T14:05:34.407Z,20.52
2023-01-19T14:08:13.610Z,20.58
2023-01-19T14:10:48.121Z,20.54
2023-01-19T14:13:22.669Z,20.56
2023-01-19T14:15:52.020Z,20.62
2023-01-19T14:18:19.088Z,20.54
2023-01-19T14:21:08.225Z,20.48
2023-01-19T14:24:08.802Z,20.44
2023-01-19T14:26:54.128Z,20.43
2023-01-19T14:29:28.964Z,20.45
2023-01-19T14:32:01.876Z,20.51
2023-01-19T14:34:47.264Z,20.52
2023-01-19T14:37:32.007Z,20.62
2023-01-19T14:40:11.201Z,20.72
2023-01-19T14:43:09.239Z,20.65
2023-01-19T14:45:43.411Z,20.68
2023-01-19T14:48:19.850Z,20.76
2023-01-19T14:51:02.488Z,20.87
2023-01-19T14:53:37.235Z,21.00
2023-01-19T14:56:06.494Z,21.16
2023-01-19T14:58:35.605Z,21.17
2023-01-19T15:01:03.814Z,21.16
2023-01-19T15:03:44.012Z,21.09
2023-01-19T15:06:20.806Z,21.11
2023-01-19T15:08:50.914Z,21.30
2023-01-19T15:11:34.921Z,21.48
2023-01-19T15:14:03.297Z,21.53
2023-01-19T15:16:33.126Z,21.36
2023-01-19T15:19:00.568Z,21.13
2023-01-19T15:21:27.800Z,20.83
2023-01-19T15:23:58.006Z,20.57
2023-01-19T15:26:26.577Z,20.37
2023-01-19T15:28:54.185Z,20.27
2023-01-19T15:31:23.913Z,20.16
2023-01-19T15:33:51.045Z,20.09
2023-01-19T15:36:20.374Z,20.03
2023-01-19T15:38:47.931Z,20.10
2023-01-19T15:41:18.450Z,20.15
2023-01-19T15:43:45.935Z,20.20
2023-01-19T15:46:15.867Z,20.31
2023-01-19T15:48:43.084Z,20.40
2023-01-19T15:51:19.174Z,20.35
2023-01-19T15:53:46.669Z,20.24
2023-01-19T15:56:24.936Z,20.06
2023-01-19T15:58:53.145Z,19.96
2023-01-19T16:01:22.930Z,19.82
2023-01-19T16:03:51.187Z,19.75
2023-01-19T16:06:18.510Z,19.77
2023-01-19T16:08:45.857Z,19.81
2023-01-19T16:11:15.898Z,19.71
2023-01-19T16:13:46.701Z,19.71
2023-01-19T16:16:19.316Z,19.70
2023-01-19T16:18:46.750Z,19.72
2023-01-19T16:21:14.026Z,19.73
2023-01-19T16:23:41.144Z,19.79
2023-01-19T16:26:23.922Z,19.90
2023-01-19T16:28:50.964Z,20.04
2023-01-19T16:31:18.050Z,20.21
2023-01-19T16:33:45.821Z,20.35
2023-01-19T16:36:29.111Z,20.50
2023-01-19T16:38:59.783Z,20.61
2023-01-19T16:41:27.120Z,20.62
2023-01-19T16:43:55.823Z,20.50
2023-01-19T16:46:28.225Z,20.44
2023-01-19T16:49:00.446Z,20.32
2023-01-19T16:51:28.093Z,20.25
2023-01-19T16:53:55.251Z,20.12
2023-01-19T16:56:22.454Z,19.95
2023-01-19T16:58:53.703Z,19.75
2023-01-19T17:01:21.473Z,19.76
2023-01-19T17:03:49.115Z,19.78
2023-01-19T17:06:18.997Z,19.84
2023-01-19T17:08:47.267Z,19.92
2023-01-19T17:11:20.891Z,19.97
2023-01-19T17:14:10.553Z,19.94
2023-01-19T17:16:37.812Z,19.88
2023-01-19T17:19:06.583Z,19.79
2023-01-19T17:21:34.356Z,19.55
2023-01-19T17:24:02.100Z,19.35
2023-01-19T17:26:31.169Z,19.37
2023-01-19T17:29:03.788Z,19.38
2023-01-19T17:31:32.442Z,19.34
2023-01-19T17:34:00.425Z,19.31
2023-01-19T17:36:30.042Z,19.34
2023-01-19T17:38:58.895Z,19.39
2023-01-19T17:41:31.212Z,19.47
2023-01-19T17:43:59.744Z,19.56
2023-01-19T17:46:28.376Z,19.64
2023-01-19T17:49:00.444Z,19.68
2023-01-19T17:51:28.279Z,19.60
2023-01-19T17:53:56.010Z,19.43
2023-01-19T17:56:30.103Z,19.25
2023-01-19T17:58:58.952Z,19.11
2023-01-19T18:01:31.389Z,18.97
2023-01-19T18:03:58.953Z,18.89
2023-01-19T18:06:26.054Z,18.81
2023-01-19T18:08:53.277Z,18.74
2023-01-19T18:11:21.480Z,18.71
2023-01-19T18:13:50.066Z,18.70
2023-01-19T18:16:28.232Z,18.66
2023-01-19T18:18:56.685Z,18.68
2023-01-19T18:21:25.324Z,18.69
2023-01-19T18:23:52.525Z,18.67
2023-01-19T18:26:21.765Z,18.63
2023-01-19T18:28:49.486Z,18.68
2023-01-19T18:31:18.656Z,18.67
2023-01-19T18:33:45.917Z,18.70
2023-01-19T18:36:13.476Z,18.73
2023-01-19T18:38:40.819Z,18.73
2023-01-19T18:41:11.297Z,18.75
2023-01-19T18:43:38.958Z,18.76
2023-01-19T18:46:06.741Z,18.77
2023-01-19T18:48:34.284Z,18.81
2023-01-19T18:51:06.239Z,18.80
2023-01-19T18:53:33.402Z,18.74
2023-01-19T18:56:02.332Z,18.69
2023-01-19T18:58:30.316Z,18.67
2023-01-19T19:00:58.445Z,18.62
2023-01-19T19:03:25.747Z,18.65
2023-01-19T19:05:52.786Z,18.68
2023-01-19T19:08:19.898Z,18.70
2023-01-19T19:10:46.985Z,18.67
2023-01-19T19:13:16.508Z,18.67
2023-01-19T19:15:44.710Z,18.70
2023-01-19T19:18:16.564Z,18.73
2023-01-19T19:20:43.815Z,18.73
2023-01-19T19:23:12.071Z,18.73
2023-01-19T19:25:39.325Z,18.77
2023-01-19T19:28:06.812Z,18.79
2023-01-19T19:30:35.997Z,18.80
2023-01-19T19:33:03.068Z,18.85
2023-01-19T19:35:30.134Z,18.86
2023-01-19T19:37:57.992Z,18.87
2023-01-19T19:40:26.223Z,18.84
2023-01-19T19:42:53.446Z,18.86
2023-01-19T19:45:20.618Z,18.86
2023-01-19T19:47:47.705Z,18.85
2023-01-19T19:50:15.216Z,18.85
2023-01-19T19:52:42.937Z,18.88
2023-01-19T19:55:10.980Z,18.86
2023-01-19T19:57:38.214Z,18.86
2023-01-19T20:00:06.528Z,18.85
2023-01-19T20:02:33.607Z,18.83
2023-01-19T20:05:00.823Z,18.82
2023-01-19T20:07:27.945Z,18.77
2023-01-19T20:09:55.390Z,18.69
2023-01-19T20:12:22.702Z,18.65
2023-01-19T20:14:49.932Z,18.64
2023-01-19T20:17:17.004Z,18.68
2023-01-19T20:19:46.648Z,18.69
2023-01-19T20:22:13.637Z,18.67
2023-01-19T20:24:40.759Z,18.68
2023-01-19T20:27:07.949Z,18.69
2023-01-19T20:29:35.236Z,18.69
2023-01-19T20:32:02.271Z,18.65
2023-01-19T20:34:33.326Z,18.68
2023-01-19T20:37:01.946Z,18.68
2023-01-19T20:39:33.588Z,18.69
2023-01-19T20:42:01.430Z,18.71
2023-01-19T20:44:28.505Z,18.72
2023-01-19T20:46:56.031Z,18.70
2023-01-19T20:49:23.490Z,18.71
2023-01-19T20:51:52.343Z,18.72
2023-01-19T20:54:22.632Z,18.68
2023-01-19T20:56:49.859Z,18.62
2023-01-19T20:59:17.478Z,18.55
2023-01-19T21:01:45.234Z,18.48
2023-01-19T21:04:13.003Z,18.48
2023-01-19T21:06:40.958Z,18.47
2023-01-19T21:09:09.269Z,18.53
2023-01-19T21:11:37.936Z,18.52
2023-01-19T21:14:06.098Z,18.49
2023-01-19T21:16:35.504Z,18.49
2023-01-19T21:19:02.958Z,18.46
2023-01-19T21:21:31.673Z,18.45
2023-01-19T21:24:03.880Z,18.44
2023-01-19T21:26:31.801Z,18.45
2023-01-19T21:28:59.755Z,18.44
2023-01-19T21:31:27.874Z,18.47
2023-01-19T21:33:55.677Z,18.52
2023-01-19T21:36:23.765Z,18.52
2023-01-19T21:38:51.751Z,18.54
2023-01-19T21:41:19.775Z,18.53
2023-01-19T21:43:47.128Z,18.51
2023-01-19T21:46:18.731Z,18.52
2023-01-19T21:48:46.538Z,18.53
2023-01-19T21:51:14.792Z,18.56
2023-01-19T21:53:42.431Z,18.57
2023-01-19T21:56:10.948Z,18.59
2023-01-19T21:58:38.668Z,18.63
2023-01-19T22:01:11.117Z,18.66
2023-01-19T22:03:38.315Z,18.68
2023-01-19T22:06:10.863Z,18.70
2023-01-19T22:08:38.385Z,18.69
2023-01-19T22:11:07.504Z,18.67
2023-01-19T22:13:35.758Z,18.62
2023-01-19T22:16:04.457Z,18.55
2023-01-19T22:18:31.529Z,18.59
2023-01-19T22:21:17.997Z,18.59
2023-01-19T22:23:48.015Z,18.61
2023-01-19T22:26:15.170Z,18.62
2023-01-19T22:28:42.279Z,18.56
2023-01-19T22:31:17.691Z,18.51
2023-01-19T22:33:45.383Z,18.49
2023-01-19T22:36:16.622Z,18.48
2023-01-19T22:38:45.029Z,18.48
2023-01-19T22:41:26.336Z,18.51
2023-01-19T22:43:55.571Z,18.48
2023-01-19T22:46:25.408Z,18.52
2023-01-19T22:48:53.217Z,18.47
2023-01-19T22:51:21.969Z,18.39
2023-01-19T22:53:49.431Z,18.33
2023-01-19T22:56:19.384Z,18.27
2023-01-19T22:58:47.755Z,18.25
2023-01-19T23:01:23.241Z,18.19
2023-01-19T23:03:51.369Z,18.12
2023-01-19T23:06:21.530Z,18.05
2023-01-19T23:08:48.861Z,18.01
2023-01-19T23:11:17.522Z,17.98
2023-01-19T23:13:45.449Z,17.94
2023-01-19T23:16:13.565Z,17.95
2023-01-19T23:18:41.814Z,17.92
2023-01-19T23:21:12.331Z,17.92
2023-01-19T23:23:40.223Z,17.92
2023-01-19T23:26:12.895Z,17.98
2023-01-19T23:28:40.200Z,18.06
2023-01-19T23:31:25.020Z,18.09
2023-01-19T23:34:00.208Z,18.09
2023-01-19T23:36:29.414Z,18.13
2023-01-19T23:38:58.934Z,18.11
2023-01-19T23:41:26.776Z,18.10
2023-01-19T23:43:53.914Z,18.10
2023-01-19T23:46:21.692Z,18.15
2023-01-19T23:48:50.133Z,18.23
2023-01-19T23:51:22.897Z,18.26
2023-01-19T23:53:50.433Z,18.33
2023-01-19T23:56:19.393Z,18.37
2023-01-19T23:58:56.659Z,18.43
